Tiempo atmosférico en la estación meteorológica de Calatayud, Zaragoza (600 m.)



Fecha
DESCASC
Temp. máxima en grados centígrados (hora)
DESCASC
Temp. mínima en grados centígrados (hora)
DESCASC
Temp. media en grados centígrados
DESCASC
Racha de viento máxima en m/sg (hora)
DESCASC
Velocidad máxima media en intervalos de 10 minutos(hora)
DESCASC
Precipitaciones diarias en mm
DESCASC
Precipitaciones de 00:00 a 06:00 en mm
DESCASC
Precipitaciones de 06:00 a 12:00 en mm
DESCASC
Precipitaciones de 12:00 a 18:00 en mm
DESCASC
Precipitaciones de 18:00 a 24:00 en mm
DESCASC
05-04-2020 20 (16:00) 6.2 (07:40) 13.1 7.5 (14:30) 4.72 (14:30) 0 0 0 0 0
04-04-2020 22.1 (16:30) 0.5 (07:50) 11.3 9.17 (19:20) 5.83 (19:20) 0 0 0 0 0
03-04-2020 17.5 (17:50) 0.4 (08:10) 9 6.67 (19:30) 4.44 (19:40) 0 0 0 0 0
02-04-2020 11.6 (20:20) 7.4 (00:00) 9.5 10.28 (20:20) 5.83 (20:10) 0.4 0 0 0.4 0
01-04-2020 10.9 (18:50) 5.3 (00:00) 8.1 8.33 (17:40) 5.83 (18:00) 5 0.4 2.8 1.4 0.4
31-03-2020 6.3 (18:50) 0.3 (00:00) 3.3 9.44 (01:00) 6.11 (01:00) 5.6 0.8 2.4 2.4 0
30-03-2020 7.6 (00:00) 1.5 (00:00) 4.5 9.17 (07:00) 5.56 (08:10) 0.8 0 0.4 0 0.4
29-03-2020 19.4 (15:20) 1.2 (00:00) 10.3 12.22 (18:40) 7.5 (18:30) 0 0 0 0 0
28-03-2020 17.6 (16:00) 0.4 (00:00) 9 6.94 (17:10) 3.89 (17:10) 0 0 0 0 0
27-03-2020 13.1 (16:40) 1.1 (00:00) 7.1 8.61 (10:30) 5.28 (10:30) 0 0 0 0 0
26-03-2020 13.3 (15:50) 1.6 (00:00) 7.5 11.11 (13:40) 6.39 (21:40) 0 0 0 0 0
25-03-2020 14 (18:20) 4.4 (00:00) 9.2 9.72 (13:30) 6.11 (13:40) 0 0 0 0 0
24-03-2020 13.2 (18:10) 5.6 (00:00) 9.4 7.5 (10:10) 5 (09:00) 0 0 0 0 0
23-03-2020 15.4 (15:50) 8.5 (00:00) 11.9 9.17 (14:40) 5.56 (14:20) 0.8 0 0 0.8 0
22-03-2020 14.9 (13:50) 8.9 (07:40) 11.9 9.44 (14:30) 6.67 (12:30) 0 0 0 0 0
21-03-2020 14.5 (14:20) 5.8 (00:00) 10.2 5.28 (13:10) 3.33 (12:10) 0 0 0 0 0
20-03-2020 15.1 (16:20) 3.9 (00:00) 9.5 8.89 (18:10) 5.83 (17:40) 0 0 0 0 0
19-03-2020 16.6 (15:30) 5.6 (00:00) 11.1 11.39 (16:40) 7.5 (16:00) 0 0 0 0 0
18-03-2020 16 (15:50) 6.6 (00:00) 11.3 7.22 (17:00) 5 (17:00) 0 0 0 0 0
17-03-2020 11.3 (18:30) 4.7 (00:00) 8 10.28 (07:30) 6.67 (11:00) 5 1.2 3.6 0.2 0
16-03-2020 9.8 (00:20) 1.1 (00:00) 5.5 11.11 (07:00) 7.22 (06:40) 44.8 3.4 30.4 8.8 2.2
15-03-2020 20.2 (14:30) 1.6 (00:00) 10.9 15 (22:40) 9.44 (22:40) 4.8 0 0 0 4.8
14-03-2020 20 (16:30) 3.4 (00:00) 11.7 7.5 (15:20) 5.28 (17:50) 0 0 0 0 0
13-03-2020 17.3 (14:30) 9.4 (07:40) 13.3 12.22 (17:50) 8.06 (18:00) 0 0 0 0 0
12-03-2020 27.1 (16:00) 6.1 (00:00) 16.6 11.11 (17:40) 7.5 (17:40) 0 0 0 0 0
11-03-2020 27.7 (17:00) 4.3 (00:00) 16 8.06 (13:40) 4.72 (14:00) 0 0 0 0 0
10-03-2020 23.4 (16:30) 2.9 (00:00) 13.1 9.17 (16:40) 5.83 (16:40) 0 0 0 0 0
09-03-2020 17.2 (14:40) 6.7 (00:00) 12 11.11 (11:10) 6.11 (15:30) 0 0 0 0 0
08-03-2020 17.1 (14:50) -0.6 (-00:0) 8.3 9.44 (14:30) 6.39 (13:00) 0 0 0 0 0

Gráficas

Temp. máximas Temp. mínimas Temp. medias Precipitaciones Rachas de viento máximas Velocidades máximas media en intervalos de 10 minutos

Datos horarios

Fecha y hora oficial Temperatura (ºC) Velocidad del viento (km/h) Dirección del viento Racha (km/h) Dirección de racha Precipitación (mm) Presión (hPa) Tendencia (hPa) Humedad (%)
2020-04-06 23:00:00 13 6 Nordeste 13 Nordeste 0 954.5 1.5 85
2020-04-06 22:00:00 13.4 2 Este 12 Nordeste 0 954.1 1.6 85
2020-04-06 21:00:00 13.9 9 Este 16 Este 0 953.4 0.7 83
2020-04-06 20:00:00 14.6 11 Nordeste 16 Nordeste 0 953 0.3 82
2020-04-06 19:00:00 15.9 6 Este 21 Nordeste 0.2 952.5 -0.5 78
2020-04-06 18:00:00 14.8 13 Nordeste 21 Nordeste 0.2 952.7 -0.2 83
2020-04-06 17:00:00 14.4 13 Nordeste 20 Nordeste 1.2 952.7 -0.2 84
2020-04-06 16:00:00 14.7 8 Nordeste 21 Este 0 953 0.8 83
2020-04-06 15:00:00 14.1 13 Nordeste 19 Nordeste 1.8 952.9 0.8 85
2020-04-06 14:00:00 14.3 10 Nordeste 17 Nordeste 1.2 952.9 0.8 78
2020-04-06 13:00:00 16.5 12 Nordeste 19 Norte 0 952.2 0.4 62
2020-04-06 12:00:00 16.1 13 Nordeste 17 Nordeste 0 952.1 0.8 64
2020-04-06 11:00:00 14.5 6 Norte 12 Nordeste 0 952.1 1.2 70
2020-04-06 10:00:00 12 5 Nordeste 12 Nordeste 0 951.8 1.6 78
2020-04-06 09:00:00 10.1 2 Noroeste 4 Sudoeste 0 951.3 1.4 82
2020-04-06 08:00:00 9.9 2 Sur 4 Oeste 0 950.9 1.2 83
2020-04-06 07:00:00 10 2 Sudeste 5 Sudoeste 0 950.2 0.3 82
2020-04-06 06:00:00 10 0 Calma 5 Sudoeste 0 949.9 0 81
2020-04-06 05:00:00 10.3 3 Sudoeste 4 Sudoeste 0 949.7 -0.2 79
2020-04-06 04:00:00 10.8 2 Sudoeste 4 Sudoeste 0 949.9 0.1 76
2020-04-06 03:00:00 11.5 2 Este 4 Nordeste 0 949.9 0.5 74
2020-04-06 02:00:00 11.9 4 Nordeste 8 Nordeste 0 949.9 1 73
2020-04-06 01:00:00 12 4 Nordeste 8 Este 0 949.8 1 70
2020-04-06 00:00:00 12.5 3 Este 21 Nordeste 0 949.4 1.5 69
2020-04-05 23:00:00 13 12 Este 18 Este 0 948.9 1.5 67
2020-04-05 22:00:00 14 6 Este 13 Nordeste 0 948.8 1.5 62
2020-04-05 21:00:00 15.7 8 Nordeste 12 Este 0 947.9 0.7 53
2020-04-05 20:00:00 18.2 4 Este 19 Este 0 947.4 -0.1 46
2020-04-05 19:00:00 18.4 10 Nordeste 27 Nordeste 0 947.3 -0.7 46
2020-04-05 18:00:00 18.9 15 Nordeste 26 Nordeste 0 947.2 -1.5 43
2020-04-05 17:00:00 19.6 17 Nordeste 26 Nordeste 0 947.5 -1.8 41
2020-04-05 16:00:00 19.8 13 Nordeste 26 Nordeste 0 948 -2 41
2020-04-05 15:00:00 18.5 15 Nordeste 27 Nordeste 0 948.7 -1.5 43
2020-04-05 14:00:00 18.3 9 Norte 23 Nordeste 0 949.3 -1.2 44
2020-04-05 13:00:00 15.6 8 Nordeste 14 Nordeste 0 950 -0.4 47
2020-04-05 12:00:00 12.8 3 Oeste 8 Oeste 0 950.2 -0.3 59
2020-04-05 11:00:00 10.7 4 Norte 7 Norte 0 950.5 0.2 65
2020-04-05 10:00:00 8.8 2 Norte 5 Norte 0 950.4 0.8 75
2020-04-05 09:00:00 7.3 3 Noroeste 5 Norte 0 950.5 1 82
2020-04-05 08:00:00 6.2 2 Oeste 5 Oeste 0 950.3 0.8 82
2020-04-05 07:00:00 6.4 0 Calma 4 Sur 0 949.6 0.1 81
2020-04-05 06:00:00 6.5 0 Calma 5 Sudoeste 0 949.5 0 80
2020-04-05 05:00:00 6.7 4 Sudoeste 6 Oeste 0 949.5 0 78
2020-04-05 04:00:00 7.6 4 Oeste 8 Sudoeste 0 949.5 0 75
2020-04-05 03:00:00 8.2 5 Sudoeste 9 Sudeste 0 949.5 0.2 72
2020-04-05 02:00:00 9.2 4 Sudeste 13 Este 0 949.5 0.6 68
2020-04-05 01:00:00 10.4 6 Este 12 Sudeste 0 949.5 1.2 62
2020-04-05 00:00:00 12 6 Sudeste 17 Este 0 949.3 2 55
2020-04-04 23:00:00 13.1 5 Sur 17 Sur 0 948.9 2.2 51
2020-04-04 22:00:00 13.4 8 Este 21 Este 0 948.3 2 58
2020-04-04 21:00:00 14.9 12 Este 29 Este 0 947.3 1.2 54
2020-04-04 20:00:00 16.7 19 Este 33 Este 0 946.7 0.2 48
2020-04-04 19:00:00 19.4 18 Este 30 Este 0 946.3 -0.7 44
2020-04-04 18:00:00 20.7 13 Este 31 Sudeste 0 946.1 -1.6 35
2020-04-04 17:00:00 21.7 11 Sudeste 26 Sudeste 0 946.5 -1.9 27
2020-04-04 16:00:00 21.3 10 Sudeste 31 Sur 0 947 -2.5 25
2020-04-04 15:00:00 18.7 14 Nordeste 27 Norte 0 947.7 -2.6 38
2020-04-04 14:00:00 17.2 8 Nordeste 17 Nordeste 0 948.4 -2.3 43
2020-04-04 13:00:00 14.4 5 Noroeste 9 Nordeste 0 949.5 -1.2 50
2020-04-04 12:00:00 10.8 3 Noroeste 12 Norte 0 950.3 -0.1 64
2020-04-04 11:00:00 7.5 4 Nordeste 9 Nordeste 0 950.7 0.7 72
2020-04-04 10:00:00 3.7 3 Sudoeste 6 Sudoeste 0 950.7 1.1 85
2020-04-04 09:00:00 1.5 3 Oeste 5 Oeste 0 950.4 0.9 88
2020-04-04 08:00:00 0.5 0 Calma 6 Sur 0 950 0.4 89
2020-04-04 07:00:00 1.1 0 Calma 5 Nordeste 0 949.6 -0.1 88
2020-04-04 06:00:00 1.7 0 Calma 4 Oeste 0 949.5 -0.2 87
2020-04-04 05:00:00 2.1 0 Calma 4 Sudoeste 0 949.6 0 86
2020-04-04 04:00:00 2.8 5 Oeste 8 Oeste 0 949.7 0.2 85
2020-04-04 03:00:00 3.8 4 Sur 6 Oeste 0 949.7 0.6 84
2020-04-04 02:00:00 4.7 4 Nordeste 9 Sudoeste 0 949.6 0.8 81
2020-04-04 01:00:00 5.5 5 Sudoeste 10 Sudoeste 0 949.5 1.3 79
2020-04-04 00:00:00 7.2 0 Calma 5 Este 0 949.1 1.6 72
2020-04-03 23:00:00 9.1 4 Sudeste 9 Sur 0 948.8 1.5 65
2020-04-03 22:00:00 9.7 5 Este 15 Este 0 948.2 1.1 59
2020-04-03 21:00:00 11.3 12 Este 22 Nordeste 0 947.5 0.5 54
2020-04-03 20:00:00 13.8 15 Nordeste 24 Nordeste 0 947.3 0.1 46
2020-04-03 19:00:00 15.5 13 Nordeste 22 Nordeste 0 947.1 -0.6 40
2020-04-03 18:00:00 17.2 6 Este 14 Este 0 947 -1.3 30
2020-04-03 17:00:00 16.6 5 Nordeste 14 Nordeste 0 947.2 -1.7 31
2020-04-03 16:00:00 15.9 6 Sudeste 14 Este 0 947.7 -1.9 31
2020-04-03 15:00:00 14.3 7 Nordeste 15 Nordeste 0 948.3 -1.6 38
2020-04-03 14:00:00 12.9 5 Oeste 16 Sudoeste 0 948.9 -1 43
2020-04-03 13:00:00 10.7 4 Norte 12 Noroeste 0 949.6 -0.2 48
2020-04-03 12:00:00 8.6 5 Oeste 9 Norte 0 949.9 0.4 50
2020-04-03 11:00:00 6 3 Noroeste 11 Sur 0 949.9 1 63
2020-04-03 10:00:00 3.6 2 Noroeste 5 Norte 0 949.8 1.5 82
2020-04-03 09:00:00 2.1 2 Sudeste 5 Sudeste 0 949.5 1.7 85
2020-04-03 08:00:00 0.5 0 Calma 4 Nordeste 0 948.9 1.3 87
2020-04-03 07:00:00 1 0 Calma 8 Nordeste 0 948.3 0.9 86
2020-04-03 06:00:00 1.6 3 Norte 9 Sudeste 0 947.8 0.2 83
2020-04-03 05:00:00 2.3 3 Sur 15 Sur 0 947.6 0 81
2020-04-03 04:00:00 3.2 7 Sudoeste 12 Oeste 0 947.4 0.1 80
2020-04-03 03:00:00 5.1 5 Sudeste 11 Sudeste 0 947.6 0.3 67
2020-04-03 02:00:00 6.4 5 Sudeste 15 Sudeste 0 947.6 0.8 62
2020-04-03 01:00:00 7.5 11 Sur 18 Sudeste 0 947.3 1.2 64
2020-04-03 00:00:00 7.9 9 Sur 12 Sur 0 947.3 2.3 63
2020-04-02 23:00:00 8.8 4 Oeste 17 Nordeste 0 946.8 2.3 59
2020-04-02 22:00:00 10.2 8 Norte 22 Norte 0 946.1 1.8 55
2020-04-02 21:00:00 11.3 18 Nordeste 37 Nordeste 0 945 1 53
2020-04-02 20:00:00 11.3 17 Nordeste 28 Nordeste 0 944.5 0.5 62
2020-04-02 19:00:00 10.9 3 Sur 7 Sudoeste 0 944.3 0.1 74
2020-04-02 18:00:00 10.8 3 Oeste 6 Oeste 0 944 -0.4 75
2020-04-02 17:00:00 11 2 Oeste 6 Oeste 0 944 -0.6 73
2020-04-02 16:00:00 10.7 0 Calma 6 Nordeste 0 944.2 -0.8 74
2020-04-02 15:00:00 10.7 3 Este -- -- 0.2 944.4 -0.5 74
2020-04-02 14:00:00 10.3 3 Sudoeste -- -- -- 944.6 0.1 81
2020-04-02 13:00:00 9.2 4 Sur 8 Sur 0 945 1 84
2020-04-02 12:00:00 8.5 4 Nordeste 12 Este 0 944.9 1.2 84
2020-04-02 11:00:00 8.9 5 Norte 13 Nordeste -- 944.5 1.1 78
2020-04-02 10:00:00 8.3 3 Norte 10 Nordeste 0 944 -- 85
2020-04-02 09:00:00 7.6 8 Nordeste 12 Nordeste 0 943.7 0.6 85
2020-04-02 08:00:00 7.5 0 Calma 5 Este 0 943.4 0.2 89
2020-04-02 07:00:00 -- -- -- -- -- -- -- -- --
2020-04-02 06:00:00 7.5 2 Sudeste 5 Sudoeste 0 943.1 -1.1 88
2020-04-02 05:00:00 7.7 2 Sur 5 Sudoeste 0 943.2 -1.3 88
2020-04-02 04:00:00 7.9 0 Calma -- -- -- 943.7 -0.8 87
2020-04-02 03:00:00 8 0 Calma 4 Oeste 0 944.2 -0.5 87
2020-04-02 02:00:00 8 0 Calma 12 Nordeste 0 944.5 -0.4 86
2020-04-02 01:00:00 8 9 Nordeste 14 Nordeste 0 944.5 0 86
2020-04-02 00:00:00 8.1 8 Nordeste 11 Nordeste 0 944.7 0.8 86
2020-04-01 23:00:00 8 3 Este 14 Nordeste 0.2 944.9 0.9 86
2020-04-01 22:00:00 8 9 Nordeste 17 Nordeste 0 944.5 1.2 86
2020-04-01 21:00:00 8.5 11 Nordeste 18 Nordeste 0 943.9 0.6 84
2020-04-01 20:00:00 9.2 12 Nordeste 28 Nordeste 0.2 944 0.6 80
2020-04-01 19:00:00 10.4 16 Nordeste 27 Nordeste 0 943.3 -0.4 74
2020-04-01 18:00:00 10.4 21 Nordeste 30 Nordeste 0 943.3 -0.8 74
2020-04-01 17:00:00 9.5 19 Nordeste 29 Nordeste 0.2 943.4 -1.2 77
2020-04-01 16:00:00 9.8 14 Nordeste 21 Norte 0 943.7 -1.3 78
2020-04-01 15:00:00 9.1 13 Nordeste 19 Norte 0.2 944.1 -1.1 83
2020-04-01 14:00:00 9.2 6 Noroeste 14 Nordeste 0.2 944.6 -0.5 83
2020-04-01 13:00:00 8 9 Nordeste 17 Nordeste 0.8 945 0.2 87
2020-04-01 12:00:00 7.2 11 Nordeste 19 Este 1.6 945.2 0.8 90
2020-04-01 11:00:00 6.7 7 Nordeste 14 Nordeste 0.2 945.1 0.8 91
2020-04-01 10:00:00 -- 8 Nordeste 13 Nordeste 0.4 944.8 0.7 91
2020-04-01 09:00:00 6.1 8 Nordeste 15 Nordeste 0 944.4 0.2 91
2020-04-01 08:00:00 5.9 6 Norte 11 Nordeste 0.2 944.3 0.3 91
2020-04-01 07:00:00 5.8 9 Nordeste 17 Nordeste 0.4 944.1 -0.1 90
2020-04-01 06:00:00 6 5 Nordeste 12 Nordeste 0.2 944.2 -0.2 89
2020-04-01 05:00:00 6.1 6 Norte 13 Nordeste 0 944 -0.7 88
2020-04-01 04:00:00 6.2 8 Nordeste 19 Nordeste 0.2 944.2 -0.7 86
2020-04-01 03:00:00 6.1 13 Nordeste 22 Nordeste 0 944.4 -0.4 85
2020-04-01 02:00:00 6.1 14 Nordeste 22 Nordeste 0 944.7 -0.2 84
2020-04-01 01:00:00 5.7 7 Nordeste 13 Nordeste 0 944.9 0.4 87
2020-04-01 00:00:00 5.4 8 Norte 12 Norte 0 944.8 0.8 87
2020-03-31 23:00:00 5.1 10 Nordeste 16 Nordeste 0 944.9 1.5 86
2020-03-31 22:00:00 5.1 9 Nordeste 15 Nordeste 0 944.5 1.4 85
2020-03-31 21:00:00 5.2 7 Nordeste 20 Nordeste 0 944 0.9 84
2020-03-31 20:00:00 5.5 13 Nordeste 20 Nordeste 0 943.4 0 83
2020-03-31 19:00:00 5.9 14 Nordeste 23 Nordeste 0 943.1 -0.4 81
2020-03-31 18:00:00 5.6 9 Norte 15 Norte 0.2 943.1 -0.6 84
2020-03-31 17:00:00 5.4 4 Norte 15 Norte 0.2 943.4 -0.5 83
2020-03-31 16:00:00 4.4 9 Nordeste 18 Nordeste 0.4 943.5 -0.5 86
2020-03-31 15:00:00 3.5 9 Nordeste 16 Nordeste 0.4 943.7 -0.3 85
2020-03-31 14:00:00 2.9 3 Norte 9 Norte 0.4 943.9 0 87
2020-03-31 13:00:00 1.8 4 Norte 13 Nordeste 0.8 944 0.2 88
2020-03-31 12:00:00 1 9 Nordeste 17 Nordeste 1.2 944 0.5 90
2020-03-31 11:00:00 0.6 11 Nordeste 22 Nordeste 0.4 943.9 0.6 90
2020-03-31 10:00:00 0.4 16 Nordeste 25 Nordeste 0.4 943.8 0.6 89
2020-03-31 09:00:00 0.6 16 Nordeste 24 Nordeste 0.2 943.5 0.2 87
2020-03-31 08:00:00 0.4 13 Nordeste 24 Nordeste 0.2 943.3 -0.3 89
2020-03-31 07:00:00 0.5 14 Nordeste 24 Nordeste 0 943.2 -1.2 87
2020-03-31 06:00:00 0.5 13 Nordeste 24 Nordeste 0 943.3 -1.7 88
2020-03-31 05:00:00 0.4 12 Nordeste 26 Este 0.2 943.6 -1.8 88
2020-03-31 04:00:00 0.3 17 Nordeste 23 Nordeste 0.4 944.4 -1.2 89
2020-03-31 03:00:00 0.7 8 Nordeste 23 Nordeste 0.2 945 -0.7 86
2020-03-31 02:00:00 1.8 15 Nordeste 33 Este 0 945.4 -0.8 73
2020-03-31 01:00:00 3.1 22 Nordeste 34 Nordeste 0 945.6 -0.8 59
2020-03-31 00:00:00 2.7 8 Nordeste 18 Nordeste 0 945.7 -0.6 75
2020-03-30 23:00:00 2.5 7 Sur 12 Sur 0 946.2 -0.1 83
2020-03-30 22:00:00 2.5 7 Sur 11 Sur 0 946.4 0.4 85
2020-03-30 21:00:00 2.3 7 Sudeste 21 Sudeste 0.2 946.3 0.2 85
2020-03-30 20:00:00 2.7 12 Sur 22 Sur 0.2 946.3 0 82
2020-03-30 19:00:00 3.3 13 Sur 20 Sudeste 0 946 -0.9 78
2020-03-30 18:00:00 3.9 14 Sur 22 Sur 0 946.1 -1.2 74
2020-03-30 17:00:00 4.8 12 Sur 19 Sur 0 946.3 -1.6 63
2020-03-30 16:00:00 5 12 Sur 19 Sur 0 946.9 -1.6 61
2020-03-30 15:00:00 4.3 6 Sur 14 Sudoeste 0 947.3 -1.6 65
2020-03-30 14:00:00 3.8 6 Sudoeste 11 Sudoeste 0 947.9 -1 69
2020-03-30 13:00:00 3.1 5 Sudoeste 12 Norte 0 948.5 0 73
2020-03-30 12:00:00 2.4 5 Norte 18 Nordeste 0.2 948.9 1 84
2020-03-30 11:00:00 1.6 12 Nordeste 24 Nordeste 0.2 948.9 1.7 85
2020-03-30 10:00:00 3.3 12 Nordeste 30 Nordeste 0 948.5 1.6 62
2020-03-30 09:00:00 3.6 12 Nordeste 29 Nordeste 0 947.9 1.1 58
2020-03-30 08:00:00 4.1 17 Nordeste 27 Nordeste 0 947.2 0 60
2020-03-30 07:00:00 4.8 19 Nordeste 33 Nordeste 0 946.9 -0.4 61
2020-03-30 06:00:00 5.9 10 Nordeste 19 Nordeste 0 946.8 -0.9 62
2020-03-30 05:00:00 6.1 8 Nordeste 15 Nordeste 0 947.2 -0.6 73
2020-03-30 04:00:00 6 3 Noroeste 8 Nordeste 0 947.3 -0.7 73
2020-03-30 03:00:00 6.4 5 Este 12 Sudeste 0 947.7 -0.4 70
2020-03-30 02:00:00 6.1 8 Sur 15 Sur 0 947.8 -0.2 72
2020-03-30 01:00:00 6 4 Sudoeste 13 Sudeste 0 948 0.2 72
2020-03-30 00:00:00 7.6 6 Sur 13 Este 0 948.1 0.8 66
2020-03-29 23:00:00 8.8 8 Este 19 Este 0 948 1.2 64
2020-03-29 22:00:00 9.4 14 Nordeste 27 Nordeste 0 947.8 1.5 62
2020-03-29 21:00:00 10.3 17 Nordeste 31 Nordeste 0 947.3 1.3 61
2020-03-29 20:00:00 12.2 22 Nordeste 40 Nordeste 0 946.8 0.5 52
2020-03-29 19:00:00 14.9 25 Nordeste 44 Nordeste 0 946.3 -0.3 38
2020-03-29 18:00:00 17.5 20 Nordeste 34 Nordeste 0 946 -1.5 24
2020-03-29 17:00:00 18 23 Nordeste 35 Nordeste 0 946.3 -2 22
2020-03-29 16:00:00 18.8 14 Nordeste 24 Nordeste 0 946.6 -2.5 24
2020-03-29 15:00:00 18.2 8 Sur 15 Nordeste 0 947.5 -2.4 28
2020-03-29 14:00:00 16.5 5 Este 14 Nordeste 0 948.3 -2.3 37
2020-03-29 13:00:00 14 5 Nordeste 11 Nordeste 0 949.1 -1.6 41
2020-03-29 12:00:00 11 4 Norte 9 Norte 0 949.9 -0.9 53
2020-03-29 11:00:00 8 2 Sudoeste 6 Nordeste 0 950.6 0.1 65
2020-03-29 10:00:00 4.6 2 Sur 5 Nordeste 0 950.7 0.4 76
2020-03-29 09:00:00 2.7 3 Nordeste 4 Nordeste 0 950.8 0.6 83
2020-03-29 08:00:00 1.2 2 Sudeste 4 Oeste 0 950.5 0.2 84
2020-03-29 07:00:00 1.8 0 Calma 4 Nordeste 0 950.3 -0.3 81
2020-03-29 06:00:00 2.5 0 Calma 4 Nordeste 0 950.2 -0.5 79
2020-03-29 05:00:00 3.1 3 Sur 6 Sudeste 0 950.3 -0.6 78
2020-03-29 03:00:00 4.4 3 Sudeste 8 Sur 0 950.7 0.2 74
2020-03-29 01:00:00 6 9 Sur 13 Sudeste 0 950.9 0.6 68
2020-03-29 00:00:00 6.8 0 Calma 6 Sur 0 950.8 1 66
2020-03-28 23:00:00 7.7 3 Nordeste 6 Sudeste 0 950.5 1.3 62
2020-03-28 22:00:00 9.2 5 Sudeste 10 Sudeste 0 950.3 1.6 56
2020-03-28 21:00:00 11.1 8 Sudeste 12 Sudeste 0 949.8 1.5 47
2020-03-28 20:00:00 12.9 6 Este 14 Nordeste 0 949.2 1.2 41
2020-03-28 19:00:00 15.4 10 Nordeste 16 Nordeste 0 948.7 0.6 31
2020-03-28 18:00:00 16.5 10 Nordeste 25 Nordeste 0 948.3 -0.1 31
2020-03-28 17:00:00 16.9 11 Nordeste 23 Nordeste 0 948 -1.1 30
2020-03-28 16:00:00 17.6 8 Norte 20 Norte 0 948.1 -1.5 31
2020-03-28 15:00:00 17.3 9 Norte 19 Nordeste 0 948.4 -1.8 30
2020-03-28 14:00:00 16 7 Norte 19 Norte 0 949.1 -1.4 32
2020-03-28 13:00:00 14.7 4 Norte 12 Norte 0 949.6 -1 34
2020-03-28 12:00:00 12.4 3 Noroeste 10 Oeste 0 950.2 -0.1 38
2020-03-28 11:00:00 9.6 4 Oeste 8 Sur 0 950.5 0.4 49
2020-03-28 10:00:00 6.6 2 Noroeste 8 Sudoeste 0 950.6 0.9 63
2020-03-28 09:00:00 3.5 3 Sudoeste 6 Sudoeste 0 950.3 1 73
2020-03-28 08:00:00 1.9 0 Calma 6 Sur 0 950.1 1.2 82
2020-03-28 07:00:00 0.7 5 Sudoeste 6 Noroeste 0 949.7 0.9 84
2020-03-28 06:00:00 0.8 2 Nordeste 5 Este 0 949.3 0.5 83
2020-03-28 05:00:00 0.6 3 Sudoeste 5 Sur 0 948.9 0.3 82
2020-03-28 04:00:00 0.8 2 Sudoeste 4 Nordeste 0 948.8 0.6 81
2020-03-28 03:00:00 1.4 2 Nordeste 6 Sur 0 948.8 0.9 78
2020-03-28 02:00:00 1.8 2 Sur 8 Sudoeste 0 948.6 1.1 78
2020-03-28 01:00:00 2.8 3 Nordeste 5 Este 0 948.2 1.3 72
2020-03-28 00:00:00 3.3 2 Sudeste 8 Sudoeste 0 947.9 1.6 72
2020-03-27 23:00:00 4.4 6 Sudoeste 9 Sur 0 947.5 2 67
2020-03-27 22:00:00 6.2 4 Sur 11 Este 0 946.9 1.9 58
2020-03-27 21:00:00 7.9 5 Este 14 Nordeste 0 946.3 1.9 50
2020-03-27 20:00:00 9.1 11 Nordeste 23 Nordeste 0 945.5 1.2 46
2020-03-27 19:00:00 10.8 15 Nordeste 27 Nordeste 0 945 0.6 41
2020-03-27 18:00:00 12.1 15 Nordeste 26 Nordeste 0 944.4 -0.3 36
2020-03-27 17:00:00 12.5 13 Nordeste 26 Nordeste 0 944.3 -0.8 36
2020-03-27 16:00:00 12.7 16 Nordeste 26 Nordeste 0 944.4 -1.1 36
2020-03-27 15:00:00 12.1 10 Nordeste 22 Norte 0 944.7 -1.2 37
2020-03-27 14:00:00 11.4 7 Norte 17 Norte 0 945.1 -1.1 39
2020-03-27 13:00:00 9.9 5 Norte 17 Nordeste 0 945.5 -0.6 46
2020-03-27 12:00:00 8.5 9 Nordeste 25 Nordeste 0 945.9 0 51
2020-03-27 11:00:00 7.2 18 Nordeste 31 Nordeste 0 946.2 0.8 57
2020-03-27 10:00:00 6.1 13 Nordeste 24 Nordeste 0 946.1 1.1 54
2020-03-27 09:00:00 4.3 3 Nordeste 9 Sur 0 945.9 1.3 59
2020-03-27 08:00:00 1.6 4 Sudoeste 12 Sur 0 945.4 1.1 72
2020-03-27 07:00:00 1.6 3 Sudeste 8 Sur 0 945 1.1 71
2020-03-27 06:00:00 1.4 6 Sur 8 Sur 0 944.6 0.8 71
2020-03-27 05:00:00 1.6 3 Noroeste 8 Sur 0 944.3 0.2 70
2020-03-27 04:00:00 1.7 3 Sudoeste 13 Sur 0 943.9 0.1 66
2020-03-27 03:00:00 2.9 3 Noroeste 5 Nordeste 0 943.8 -0.1 60
2020-03-27 02:00:00 3.7 5 Nordeste 12 Este 0 944.1 0.4 54
2020-03-27 01:00:00 4 7 Nordeste 16 Nordeste 0 943.8 0.4 52
2020-03-27 00:00:00 4.6 13 Nordeste 28 Nordeste 0 943.9 1 50
2020-03-26 23:00:00 5 14 Nordeste 35 Este 0 943.7 1.7 46
2020-03-26 22:00:00 5.8 20 Nordeste 37 Nordeste 0 943.4 1.9 43
2020-03-26 21:00:00 7.1 16 Nordeste 32 Nordeste 0 942.9 2.2 41
2020-03-26 20:00:00 8.1 16 Nordeste 25 Nordeste 0 942 1.8 39
2020-03-26 19:00:00 10.1 15 Nordeste 32 Nordeste 0 941.5 1.6 33
2020-03-26 18:00:00 12.2 13 Norte 33 Norte 0 940.7 0.5 26
2020-03-26 17:00:00 12.2 18 Norte 34 Noroeste 0 940.2 -0.7 23
2020-03-26 16:00:00 13 15 Norte 35 Norte 0 939.9 -1.5 25
2020-03-26 15:00:00 12.6 12 Norte 36 Noroeste 0 940.2 -1.4 27
2020-03-26 14:00:00 11.6 15 Norte 40 Noroeste 0 940.9 -0.9 32
2020-03-26 13:00:00 9.7 19 Noroeste 39 Norte 0 941.4 -0.4 39
2020-03-26 12:00:00 9 16 Noroeste 31 Noroeste 0 941.6 -0.4 42
2020-03-26 11:00:00 7 12 Norte 23 Noroeste 0 941.8 -0.5 59
2020-03-26 10:00:00 4.9 5 Nordeste 10 Nordeste 0 941.8 -0.5 73
2020-03-26 09:00:00 3.1 3 Oeste 11 Nordeste 0 942 -0.4 84
2020-03-26 08:00:00 2 0 Calma 6 Sur 0 942.3 -0.4 85
2020-03-26 07:00:00 1.7 5 Norte 11 Sudeste 0 942.3 -0.8 83
2020-03-26 06:00:00 2.2 4 Sur 8 Sudoeste 0 942.4 -1.1 83
2020-03-26 05:00:00 1.8 4 Oeste 14 Sur 0 942.7 -1 85
2020-03-26 04:00:00 3 5 Sur 8 Sur 0 943.1 -1 88
2020-03-26 03:00:00 3.9 4 Oeste 9 Oeste 0 943.5 -0.9 85
2020-03-26 02:00:00 4.9 3 Este 6 Nordeste 0 943.7 -0.6 85
2020-03-26 01:00:00 5.2 5 Sudeste 9 Sudoeste 0 944.1 -0.5 84
2020-03-26 00:00:00 6.2 3 Sur 12 Este 0 944.4 0 81
2020-03-25 23:00:00 7.2 8 Este 15 Este 0 944.3 0.2 78
2020-03-25 22:00:00 8.2 6 Este 18 Este 0 944.6 0.4 75
2020-03-25 21:00:00 8.4 9 Nordeste 18 Nordeste 0 944.4 0.3 74
2020-03-25 20:00:00 9.7 11 Nordeste 18 Nordeste 0 944.1 -0.7 66
2020-03-25 19:00:00 12.7 4 Nordeste 15 Norte 0 944.2 -1.2 49
2020-03-25 18:00:00 13.8 9 Norte 19 Nordeste 0 944.1 -1.7 45
2020-03-25 17:00:00 13.5 14 Norte 29 Nordeste 0 944.8 -1.6 45
2020-03-25 16:00:00 13.1 16 Nordeste 31 Norte 0 945.4 -1.4 52
2020-03-25 15:00:00 13.4 18 Nordeste 31 Nordeste 0 945.8 -1.3 51
2020-03-25 14:00:00 12.3 20 Nordeste 35 Nordeste 0 946.4 -1.2 55
2020-03-25 13:00:00 11.7 21 Nordeste 33 Nordeste 0 946.8 -1.1 59
2020-03-25 12:00:00 11.2 5 Este 20 Este 0 947.1 -0.8 63
2020-03-25 11:00:00 9 14 Nordeste 22 Nordeste 0 947.6 0.1 74
2020-03-25 10:00:00 7 3 Oeste 6 Noroeste 0 947.9 0.9 83
2020-03-25 09:00:00 5.8 3 Oeste 8 Sudoeste 0 947.9 0.8 84
2020-03-25 08:00:00 5.8 2 Norte 8 Nordeste 0 947.5 0.2 84
2020-03-25 07:00:00 5.7 3 Noroeste 5 Este 0 947 -0.5 83
2020-03-25 06:00:00 5.6 2 Norte 5 Noroeste 0 947.1 -1 84
2020-03-25 05:00:00 5.6 3 Oeste 6 Sudeste 0 947.3 -1 85
2020-03-25 04:00:00 5.4 4 Nordeste 6 Nordeste 0 947.5 -0.9 85
2020-03-25 03:00:00 5.1 3 Noroeste 6 Sudeste 0 948.1 -0.4 86
2020-03-25 02:00:00 4.5 4 Oeste 8 Sudoeste 0 948.3 -0.4 86
2020-03-25 01:00:00 4.9 3 Este 10 Sur 0 948.4 -0.1 84
2020-03-25 00:00:00 5.6 5 Sur 9 Sur 0 948.5 0 82
2020-03-24 23:00:00 6.1 4 Sur 7 Norte 0 948.7 0.1 80
2020-03-24 22:00:00 7.4 3 Sudoeste 6 Norte 0 948.5 0.3 77
2020-03-24 21:00:00 8.6 5 Sudoeste 14 Sur 0 948.5 0.7 72
2020-03-24 20:00:00 10.2 5 Sudeste 13 Nordeste 0 948.6 0.5 66
2020-03-24 19:00:00 12.2 8 Este 22 Nordeste 0 948.2 -0.3 58
2020-03-24 18:00:00 13.1 14 Nordeste 24 Nordeste 0 947.8 -1.3 54
2020-03-24 17:00:00 12.6 13 Nordeste 20 Nordeste 0 948.1 -1.7 56
2020-03-24 16:00:00 12.2 12 Nordeste 18 Nordeste 0 948.5 -1.6 60
2020-03-24 15:00:00 11.9 8 Este 17 Nordeste 0 949.1 -1.2 61
2020-03-24 14:00:00 11.3 9 Nordeste 24 Nordeste 0 949.8 -0.7 65
2020-03-24 13:00:00 11.7 13 Nordeste 23 Nordeste 0 950.1 -0.5 65
2020-03-24 12:00:00 10.5 15 Nordeste 23 Nordeste 0 950.3 0.1 72
2020-03-24 11:00:00 9.9 15 Nordeste 27 Nordeste 0 950.5 0.2 76
2020-03-24 10:00:00 9.6 15 Nordeste 26 Nordeste 0 950.6 0.7 78
2020-03-24 09:00:00 9.6 18 Nordeste 25 Nordeste 0 950.2 0.6 76
2020-03-24 08:00:00 9.1 13 Nordeste 21 Nordeste 0 950.3 0.6 82
2020-03-24 07:00:00 9.1 8 Nordeste 24 Nordeste 0 949.9 0.2 81
2020-03-24 06:00:00 9.1 12 Nordeste 21 Nordeste 0 949.6 0.1 81
2020-03-24 05:00:00 9 10 Nordeste 15 Nordeste 0 949.7 -0.1 83
2020-03-24 04:00:00 9.1 6 Nordeste 14 Nordeste 0 949.7 -0.4 81
2020-03-24 03:00:00 9.7 11 Nordeste 17 Nordeste 0 949.5 -0.6 79
2020-03-24 02:00:00 10 2 Este 15 Nordeste 0 949.8 -0.1 75
2020-03-24 01:00:00 10.3 9 Nordeste 13 Nordeste 0 950.1 0.4 79
2020-03-24 00:00:00 10.5 7 Nordeste 15 Nordeste 0 950.1 0.8 76
2020-03-23 23:00:00 10.7 9 Nordeste 15 Nordeste 0 949.9 0.9 77
2020-03-23 22:00:00 11.1 11 Nordeste 19 Nordeste 0 949.7 1.3 74
2020-03-23 21:00:00 11.3 8 Este 17 Este 0 949.3 1.7 69
2020-03-23 20:00:00 12.2 11 Este 19 Este 0 949 1.6 66
2020-03-23 19:00:00 12.8 8 Este 26 Este 0 948.4 1 64
2020-03-23 18:00:00 13.3 16 Nordeste 29 Nordeste 0 947.6 -0.4 64
2020-03-23 17:00:00 13.5 16 Nordeste 28 Nordeste 0 947.4 -1.1 61
2020-03-23 16:00:00 15.3 14 Este 28 Este 0 947.4 -1.9 51
2020-03-23 15:00:00 13.6 18 Este 33 Nordeste 0 948 -1.3 57
2020-03-23 14:00:00 12.7 14 Nordeste 26 Nordeste 0 948.5 -0.6 69
2020-03-23 13:00:00 10.9 10 Nordeste 23 Nordeste 0.8 949.3 0.2 84
2020-03-23 12:00:00 11 15 Nordeste 26 Nordeste 0 949.3 0.7 76
2020-03-23 11:00:00 11.6 15 Nordeste 23 Nordeste 0 949.1 1 70
2020-03-23 10:00:00 10.7 13 Nordeste 20 Nordeste 0 949.1 1.5 75
2020-03-23 09:00:00 9.6 12 Nordeste 18 Nordeste 0 948.6 1.3 81
2020-03-23 08:00:00 9.1 11 Nordeste 22 Nordeste 0 948.1 1 84
2020-03-23 07:00:00 8.8 12 Nordeste 18 Nordeste 0 947.6 0.8 84
2020-03-23 06:00:00 8.5 9 Nordeste 20 Nordeste 0 947.3 0.6 83
2020-03-23 05:00:00 8.7 10 Nordeste 21 Nordeste 0 947.1 0.4 83
2020-03-23 04:00:00 9 14 Nordeste 21 Nordeste 0 946.8 0 82
2020-03-23 03:00:00 9.1 9 Nordeste 23 Nordeste 0 946.7 0.1 80
2020-03-23 02:00:00 9.2 15 Nordeste 22 Nordeste 0 946.7 0 79
2020-03-23 01:00:00 9.7 9 Nordeste 24 Nordeste 0 946.8 0.5 77
2020-03-23 00:00:00 9.7 10 Nordeste 18 Nordeste 0 946.6 1 77
2020-03-22 23:00:00 10.4 0 Calma 7 Sudeste 0 946.7 1.7 73
2020-03-22 22:00:00 10.8 3 Este 9 Nordeste 0 946.3 1.8 70
2020-03-22 21:00:00 11.1 3 Sudeste 12 Este 0 945.6 1.7 64
2020-03-22 20:00:00 11.5 4 Este 10 Este 0 945 1.5 61
2020-03-22 19:00:00 12.6 5 Este 23 Este 0 944.5 1 55
2020-03-22 18:00:00 13.5 12 Este 28 Nordeste 0 943.9 0.3 51
2020-03-22 17:00:00 13.8 16 Nordeste 30 Nordeste 0 943.5 -0.3 51
2020-03-22 16:00:00 13.7 15 Nordeste 34 Nordeste 0 943.5 -0.7 52
2020-03-22 15:00:00 13.5 18 Nordeste 34 Nordeste 0 943.6 -0.6 58
2020-03-22 14:00:00 14.2 20 Nordeste 31 Nordeste 0 943.8 -0.3 53
2020-03-22 13:00:00 13.2 19 Nordeste 34 Nordeste 0 944.2 0 56
2020-03-22 12:00:00 13.2 21 Nordeste 32 Nordeste 0 944.2 0.4 55
2020-03-22 11:00:00 13.5 10 Norte 20 Norte 0 944.1 0.5 57
2020-03-22 10:00:00 11.5 4 Norte 12 Norte 0 944.2 1 67
2020-03-22 09:00:00 9.9 3 Este 5 Este 0 943.8 0.8 75
2020-03-22 08:00:00 9 0 Calma 7 Sudoeste 0 943.6 0.7 78
2020-03-22 07:00:00 9.1 4 Sudoeste 12 Sur 0 943.2 0.4 74
2020-03-22 06:00:00 9.3 6 Sudoeste 12 Sudoeste 0 943 -0.1 73
2020-03-22 05:00:00 9.5 5 Sur 10 Sudoeste 0 942.9 -0.4 72
2020-03-22 04:00:00 9.7 6 Sudoeste 10 Sudoeste 0 942.8 -0.6 72
2020-03-22 03:00:00 9.8 4 Sudoeste 11 Sudoeste 0 943.1 -0.6 74
2020-03-22 02:00:00 10.1 5 Sudoeste 12 Sudoeste 0 943.3 -0.3 79
2020-03-22 01:00:00 10.4 3 Oeste 7 Este 0 943.4 -0.1 78
2020-03-22 00:00:00 10.7 5 Nordeste 7 Nordeste 0 943.7 0.4 75
2020-03-21 23:00:00 11.1 3 Nordeste 8 Este 0 943.6 0.6 72
2020-03-21 22:00:00 11.4 2 Este 7 Este 0 943.5 1 71
2020-03-21 21:00:00 11.8 3 Este 6 Este 0 943.3 0.9 70
2020-03-21 20:00:00 12.3 4 Este 8 Norte 0 943 0.5 67
2020-03-21 19:00:00 12.7 6 Nordeste 11 Norte 0 942.5 -0.2 64
2020-03-21 18:00:00 13.1 6 Norte 10 Nordeste 0 942.4 -0.8 60
2020-03-21 17:00:00 13.6 6 Nordeste 11 Nordeste 0 942.5 -1.3 53
2020-03-21 16:00:00 14.1 4 Este 12 Norte 0 942.7 -1.8 49
2020-03-21 15:00:00 14.2 6 Nordeste 17 Nordeste 0 943.2 -1.9 50
2020-03-21 14:00:00 14 6 Nordeste 19 Nordeste 0 943.8 -1.7 50
2020-03-21 13:00:00 13.3 10 Nordeste 17 Nordeste 0 944.5 -1.1 56
2020-03-21 12:00:00 12 10 Nordeste 16 Nordeste 0 945.1 -0.6 63
2020-03-21 11:00:00 12.2 4 Oeste 13 Oeste 0 945.5 -0.2 61
2020-03-21 10:00:00 10 6 Norte 11 Norte 0 945.6 0.1 71
2020-03-21 09:00:00 7.7 5 Nordeste 9 Nordeste 0 945.7 -0.1 81
2020-03-21 08:00:00 5.9 3 Sur 8 Nordeste 0 945.7 -0.2 85
2020-03-21 07:00:00 6.3 4 Nordeste 7 Norte 0 945.5 -0.7 86
2020-03-21 06:00:00 6.8 3 Norte 10 Sur 0 945.8 -1 85
2020-03-21 05:00:00 6.5 6 Sur 12 Sur 0 945.9 -1.1 85
2020-03-21 04:00:00 6.7 3 Sur 5 Sudeste 0 946.2 -0.9 83
2020-03-21 03:00:00 7.4 3 Este 10 Nordeste 0 946.8 -0.7 82
2020-03-21 02:00:00 7.4 4 Sudeste 6 Este 0 947 -0.8 81
2020-03-21 01:00:00 8.5 4 Nordeste 6 Nordeste 0 947.1 -0.6 79
2020-03-21 00:00:00 8.9 3 Sur 10 Sur 0 947.5 0 78
2020-03-20 23:00:00 9.6 6 Sur 9 Este 0 947.8 0.5 75
2020-03-20 22:00:00 9.9 3 Este 9 Sudeste 0 947.7 0.4 74
2020-03-20 21:00:00 11.2 3 Sudeste 9 Este 0 947.5 0.4 71
2020-03-20 20:00:00 11.9 8 Este 17 Este 0 947.3 0 68
2020-03-20 19:00:00 13 8 Nordeste 32 Nordeste 0 947.3 -0.3 67
2020-03-20 18:00:00 13.6 17 Nordeste 31 Nordeste 0 947.1 -1.3 64
2020-03-20 17:00:00 14.2 19 Nordeste 30 Nordeste 0 947.3 -1.4 59
2020-03-20 16:00:00 14.8 14 Norte 24 Nordeste 0 947.6 -1.5 57
2020-03-20 15:00:00 13.8 13 Norte 24 Nordeste 0 948.4 -1.3 60
2020-03-20 14:00:00 13.7 10 Norte 18 Norte 0 948.7 -1.2 59
2020-03-20 13:00:00 13.2 8 Norte 14 Nordeste 0 949.1 -0.9 60
2020-03-20 12:00:00 11.9 7 Nordeste 13 Nordeste 0 949.7 -0.3 65
2020-03-20 11:00:00 10.8 6 Nordeste 12 Nordeste 0 949.9 0.3 67
2020-03-20 10:00:00 8.6 4 Nordeste 8 Nordeste 0 950 0.7 78
2020-03-20 09:00:00 5.6 4 Sudoeste 6 Sudoeste 0 950 0.7 88
2020-03-20 08:00:00 4.2 3 Sur 5 Sudoeste 0 949.6 0.2 88
2020-03-20 07:00:00 4.2 3 Oeste 5 Sudeste 0 949.3 -0.2 87
2020-03-20 06:00:00 4.9 3 Sur 7 Sur 0 949.3 -0.4 87
2020-03-20 05:00:00 5.4 4 Sur 6 Sur 0 949.4 -0.5 84
2020-03-20 04:00:00 6.5 0 Calma 4 Nordeste 0 949.5 -0.4 81
2020-03-20 03:00:00 7.1 2 Noroeste 12 Nordeste 0 949.7 -0.5 79
2020-03-20 02:00:00 8.5 9 Nordeste 18 Nordeste 0 949.9 -0.5 73
2020-03-20 01:00:00 8.5 5 Norte 13 Nordeste 0 949.9 -0.5 75
2020-03-20 00:00:00 9 5 Nordeste 12 Nordeste 0 950.2 -0.1 75
2020-03-19 23:00:00 9.4 3 Nordeste 14 Este 0 950.4 0.2 72
2020-03-19 22:00:00 10.5 5 Este 10 Este 0 950.4 0.7 69
2020-03-19 21:00:00 11.4 4 Este 7 Nordeste 0 950.3 0.9 67
2020-03-19 20:00:00 12.3 4 Este 19 Nordeste 0 950.2 0.6 64
2020-03-19 19:00:00 13.9 14 Nordeste 28 Nordeste 0 949.7 -0.4 61
2020-03-19 18:00:00 15.2 18 Nordeste 34 Nordeste 0 949.4 -1.6 47
2020-03-19 17:00:00 16 23 Nordeste 41 Nordeste 0 949.6 -2.4 45
2020-03-19 16:00:00 16.1 27 Nordeste 40 Nordeste 0 950.1 -3 47
2020-03-19 15:00:00 16.1 21 Nordeste 35 Nordeste 0 951 -2.9 52
2020-03-19 14:00:00 15.9 13 Norte 22 Norte 0 952 -2.6 53
2020-03-19 13:00:00 12.8 6 Norte 12 Nordeste 0 953.1 -1.7 67
2020-03-19 12:00:00 10.2 2 Oeste 8 Oeste 0 953.9 -0.7 75
2020-03-19 11:00:00 9 4 Sudoeste 7 Noroeste 0 954.6 0.2 82
2020-03-19 10:00:00 6.7 4 Sur 8 Sur 0 954.8 0.5 91
2020-03-19 09:00:00 6.1 3 Sur 6 Sur 0 954.6 0.4 92
2020-03-19 08:00:00 5.8 2 Sur 8 Sur 0 954.4 0.1 92
2020-03-19 07:00:00 6 2 Este 8 Sur 0 954.3 -0.1 92
2020-03-19 06:00:00 6 0 Calma 7 Sur 0 954.2 -0.8 91
2020-03-19 05:00:00 6.5 3 Sur 6 Sur 0 954.3 -1.2 91
2020-03-19 04:00:00 6.7 3 Sur 5 Sudoeste 0 954.4 -1.4 90
2020-03-19 03:00:00 6.6 2 Sur 5 Sur 0 955 -1 89
2020-03-19 02:00:00 7.3 0 Calma 5 Sudeste 0 955.5 -0.6 88
2020-03-19 01:00:00 8.3 3 Noroeste 6 Este 0 955.8 -0.4 87
2020-03-19 00:00:00 9.2 4 Sudeste 6 Sudeste 0 956 -0.1 86
2020-03-18 23:00:00 9.9 3 Nordeste 6 Sudeste 0 956.1 0.1 86
2020-03-18 22:00:00 10.6 3 Sudeste 6 Este 0 956.2 0.6 84
2020-03-18 21:00:00 11.5 2 Este 14 Nordeste 0 956.1 0.6 82
2020-03-18 20:00:00 12.1 8 Nordeste 13 Nordeste 0 956 0.5 81
2020-03-18 19:00:00 12.9 8 Nordeste 23 Nordeste 0 955.6 -0.3 78
2020-03-18 18:00:00 13.6 16 Nordeste 25 Nordeste 0 955.5 -0.8 74
2020-03-18 17:00:00 14.4 18 Nordeste 26 Nordeste 0 955.5 -1.5 70
2020-03-18 16:00:00 15.9 10 Norte 18 Norte 0 955.9 -1.9 63
2020-03-18 15:00:00 15.4 9 Norte 16 Norte 0 956.3 -2.2 66
2020-03-18 14:00:00 15.4 5 Nordeste 13 Nordeste 0 957 -2.1 62
2020-03-18 13:00:00 14.1 4 Norte 10 Norte 0 957.8 -1.4 64
2020-03-18 12:00:00 12.6 5 Nordeste 9 Nordeste 0 958.5 -0.7 73
2020-03-18 11:00:00 10.8 3 Noroeste 5 Oeste 0 959.1 0.2 80
2020-03-18 10:00:00 9.5 4 Oeste 11 Sur 0 959.2 0.2 85
2020-03-18 09:00:00 7.4 7 Sur 12 Sur 0 959.2 0.4 90
2020-03-18 08:00:00 6.8 2 Sur 6 Sudeste 0 958.9 0.2 90
2020-03-18 07:00:00 6.7 4 Sur 9 Sudoeste 0 959 0.3 90
2020-03-18 06:00:00 6.9 5 Sur 10 Sur 0 958.8 -0.1 90
2020-03-18 05:00:00 6.9 5 Sur 10 Sur 0 958.7 -0.7 89
2020-03-18 04:00:00 7.4 5 Sur 10 Sur 0 958.7 -1.1 89
2020-03-18 03:00:00 7.9 4 Sur 7 Sur 0 958.9 -1.2 87
2020-03-18 02:00:00 8.6 2 Nordeste 5 Sur 0 959.4 -1 85
2020-03-18 01:00:00 9.2 4 Sur 7 Sur 0 959.8 -0.3 85
2020-03-18 00:00:00 9.1 5 Sur 7 Sur 0 960.1 0.5 85
2020-03-17 23:00:00 9.8 4 Este 10 Nordeste 0 960.4 1.4 85
2020-03-17 22:00:00 10.4 7 Nordeste 14 Nordeste 0 960.1 1.6 83
2020-03-17 21:00:00 10.6 12 Nordeste 24 Nordeste 0 959.6 1.4 83
2020-03-17 20:00:00 11 14 Nordeste 23 Nordeste 0 959 0.6 82
2020-03-17 19:00:00 11.1 15 Nordeste 30 Nordeste 0 958.5 0.3 86
2020-03-17 18:00:00 11 19 Nordeste 28 Nordeste 0 958.2 0.1 88
2020-03-17 17:00:00 10.5 12 Nordeste 23 Nordeste 0 958.4 0.2 88
2020-03-17 16:00:00 10.3 11 Nordeste 30 Nordeste 0.2 958.2 -0.1 88
2020-03-17 15:00:00 10.1 15 Nordeste 26 Nordeste 0 958.1 0.1 88
2020-03-17 14:00:00 10.1 18 Nordeste 30 Nordeste 0 958.2 0.9 86
2020-03-17 13:00:00 9.6 19 Nordeste 33 Nordeste 0 958.3 1.5 87
2020-03-17 12:00:00 9.6 18 Nordeste 35 Nordeste 0 958 1.9 88
2020-03-17 11:00:00 9.1 24 Nordeste 35 Nordeste 0 957.3 2.3 88
2020-03-17 10:00:00 8.9 15 Nordeste 28 Nordeste 0 956.8 2.2 89
2020-03-17 09:00:00 8.9 20 Nordeste 33 Nordeste 1.4 956.1 2.3 88
2020-03-17 08:00:00 9 21 Nordeste 37 Nordeste 1 955 1.8 88
2020-03-17 07:00:00 9 17 Nordeste 28 Nordeste 1.2 954.6 2.3 89
2020-03-17 06:00:00 8.8 20 Nordeste 28 Nordeste 1 953.8 1.2 90
2020-03-17 05:00:00 8.8 18 Nordeste 33 Nordeste 0 953.2 0.8 90
2020-03-17 04:00:00 8.5 19 Nordeste 33 Nordeste 0 952.3 0 90
2020-03-17 03:00:00 8.4 20 Nordeste 31 Nordeste 0.2 952.6 0.8 90
2020-03-17 02:00:00 8.4 16 Nordeste 36 Nordeste 0 952.4 1 91
2020-03-17 01:00:00 5.9 5 Noroeste 22 Nordeste 0 952.3 1.6 91
2020-03-17 00:00:00 4.7 8 Oeste 15 Sudoeste 0 951.8 1.7 91
2020-03-16 23:00:00 4.2 8 Sudoeste 12 Sudoeste 0 951.4 1.9 91
2020-03-16 22:00:00 4.1 6 Sur 12 Sur 0 950.7 1.7 90
2020-03-16 21:00:00 3.8 7 Sur 14 Sur 0 950.1 1.8 91
2020-03-16 20:00:00 3.6 6 Sur 11 Sur 0 949.5 2.3 91
2020-03-16 19:00:00 3.6 4 Norte 15 Oeste 2.2 949 2.4 90
2020-03-16 18:00:00 3.3 7 Sudoeste 21 Sudoeste 1 948.3 1.5 91
2020-03-16 17:00:00 3.5 4 Sudoeste 22 Sur 2 947.2 0 90
2020-03-16 16:00:00 3.2 6 Sudeste 11 Sur 0.2 946.6 -0.8 90
2020-03-16 15:00:00 2.8 2 Sur 8 Sudoeste 0.4 946.8 -0.1 89
2020-03-16 14:00:00 2 5 Sudoeste 13 Sur 2 947.2 1.4 90
2020-03-16 13:00:00 1.4 4 Sudoeste 16 Oeste 3.2 947.4 3.2 88
2020-03-16 12:00:00 3.7 7 Oeste 20 Nordeste 4 946.9 3.7 86
2020-03-16 11:00:00 4.3 12 Este 25 Nordeste 3.8 945.8 3.4 87
2020-03-16 10:00:00 4.5 21 Nordeste 34 Nordeste 5.8 944.2 2.7 86
2020-03-16 09:00:00 5.1 18 Nordeste 35 Nordeste 7.2 943.2 2.3 87
2020-03-16 08:00:00 6 20 Nordeste 34 Nordeste 7.2 942.4 1 87
2020-03-16 07:00:00 7.4 26 Nordeste 40 Nordeste 2.4 941.5 -0.5 86
2020-03-16 06:00:00 8.3 22 Nordeste 37 Nordeste 0.4 940.9 -1.2 86
2020-03-16 05:00:00 9.3 14 Nordeste 23 Nordeste 1.2 941.4 -1.3 86
2020-03-16 04:00:00 9.5 5 Nordeste 11 Nordeste 0.4 942 -1 83
2020-03-16 03:00:00 9.5 8 Nordeste 17 Sudeste 0 942.1 -2 84
2020-03-16 02:00:00 9.5 7 Sudeste 20 Sur 0.8 942.7 -2.9 84
2020-03-16 01:00:00 9.4 4 Este 17 Sudeste 0.6 943 -0.3 84
2020-03-16 00:00:00 9.7 6 Este 14 Oeste 3.2 944.1 2.4 85
2020-03-15 23:00:00 10.5 11 Oeste 54 Oeste 1.6 945.6 4.2 76
2020-03-15 22:00:00 14.9 6 Norte 25 Oeste 0 943.3 1.3 45
2020-03-15 21:00:00 15.9 14 Sur 39 Sudoeste 0 941.7 0 40
2020-03-15 20:00:00 16.7 14 Sur 37 Sur 0 941.4 -1 36
2020-03-15 19:00:00 14.9 8 Nordeste 20 Nordeste 0 942 -0.8 64
2020-03-15 18:00:00 15.6 12 Nordeste 23 Nordeste 0 941.7 -1.5 60
2020-03-15 17:00:00 16.6 15 Nordeste 26 Este 0 942.4 -2.3 53
2020-03-15 16:00:00 18 17 Nordeste 29 Nordeste 0 942.8 -2.9 40
2020-03-15 15:00:00 18.2 18 Nordeste 34 Nordeste 0 943.2 -3.7 40
2020-03-15 14:00:00 19.4 9 Norte 18 Norte 0 944.7 -3.3 38
2020-03-15 13:00:00 16.7 3 Noroeste 8 Sudoeste 0 945.7 -3.1 44
2020-03-15 12:00:00 14 2 Noroeste 9 Nordeste 0 946.9 -2.2 48
2020-03-15 11:00:00 11.5 2 Noroeste 7 Oeste 0 948 -1.2 44
2020-03-15 10:00:00 7 3 Oeste 6 Sudoeste 0 948.8 -0.3 57
2020-03-15 09:00:00 3.3 2 Sudoeste 4 Oeste 0 949.1 -0.2 69
2020-03-15 08:00:00 1.8 0 Calma 3 Sudeste 0 949.2 -0.2 72
2020-03-15 07:00:00 1.9 0 Calma 4 Este 0 949.1 -0.6 71
2020-03-15 06:00:00 2.2 0 Calma 4 Norte 0 949.3 -1.2 70
2020-03-15 05:00:00 2.5 2 Sur 7 Sur 0 949.4 -1.5 69
2020-03-15 04:00:00 3.2 4 Nordeste 8 Sur 0 949.7 -1.4 67
2020-03-15 03:00:00 3.5 6 Sur 7 Sur 0 950.5 -0.7 65
2020-03-15 02:00:00 4.6 0 Calma 6 Sur 0 950.9 -0.4 61
2020-03-15 01:00:00 5.9 3 Sudoeste 7 Noroeste 0 951.1 -0.1 57
2020-03-15 00:00:00 7 2 Oeste 9 Oeste 0 951.2 0.2 51
2020-03-14 23:00:00 8.4 3 Noroeste 5 Norte 0 951.3 0.5 48
2020-03-14 22:00:00 10.2 2 Nordeste 7 Sudeste 0 951.2 0.9 41
2020-03-14 21:00:00 12.2 2 Sudeste 6 Sudeste 0 951 1.1 34
2020-03-14 20:00:00 13.8 4 Este 15 Nordeste 0 950.8 0.8 31
2020-03-14 19:00:00 16.2 11 Nordeste 24 Nordeste 0 950.3 -0.1 26
2020-03-14 18:00:00 18.4 17 Nordeste 26 Nordeste 0 949.9 -0.9 20
2020-03-14 17:00:00 19.5 10 Nordeste 21 Nordeste 0 950 -1.7 18
2020-03-14 16:00:00 19.4 10 Nordeste 27 Nordeste 0 950.4 -2.1 17
2020-03-14 15:00:00 18.9 12 Nordeste 24 Nordeste 0 950.8 -2.3 20
2020-03-14 14:00:00 17.6 8 Nordeste 17 Nordeste 0 951.7 -2 23
2020-03-14 13:00:00 17.1 4 Sudeste 13 Este 0 952.5 -1.3 24
2020-03-14 12:00:00 14.5 4 Norte 15 Sudoeste 0 953.1 -0.5 43
2020-03-14 11:00:00 11.7 3 Sudoeste 10 Sudoeste 0 953.7 0.6 63
2020-03-14 10:00:00 8.1 2 Oeste 5 Noroeste 0 953.8 1.3 74
2020-03-14 09:00:00 4.6 3 Noroeste 4 Noroeste 0 953.6 1.3 86
2020-03-14 08:00:00 3.6 2 Nordeste 6 Norte 0 953.1 1.2 86
2020-03-14 07:00:00 3.7 2 Este 6 Sur 0 952.5 0.9 85
2020-03-14 06:00:00 4.1 4 Sudoeste 8 Sur 0 952.3 0.3 84
2020-03-14 05:00:00 5.1 4 Nordeste 7 Nordeste 0 951.9 -0.4 83
2020-03-14 04:00:00 5.5 4 Sudoeste 7 Sur 0 951.6 -0.7 81
2020-03-14 03:00:00 6.4 3 Nordeste 5 Nordeste 0 952 0 78
2020-03-14 02:00:00 7 4 Sudoeste 6 Oeste 0 952.3 0.4 76
2020-03-14 01:00:00 8.5 0 Calma 6 Sudeste 0 952.3 0.6 71
2020-03-14 00:00:00 9.4 4 Sudeste 6 Norte 0 952 0.6 68
2020-03-13 23:00:00 10.5 3 Este 12 Nordeste 0 951.9 1 65
2020-03-13 22:00:00 11.2 3 Este 13 Nordeste 0 951.7 1.6 63
2020-03-13 21:00:00 11.5 8 Este 29 Nordeste 0 951.4 1.6 61
2020-03-13 20:00:00 12.2 20 Nordeste 38 Nordeste 0 950.9 1.3 60
2020-03-13 19:00:00 13.2 23 Nordeste 42 Nordeste 0 950.1 0.5 56
2020-03-13 18:00:00 15.2 29 Nordeste 44 Nordeste 0 949.8 -0.1 49
2020-03-13 17:00:00 16.4 26 Nordeste 41 Nordeste 0 949.6 -0.9 45
2020-03-13 16:00:00 17.1 24 Nordeste 40 Nordeste 0 949.6 -1.5 43
2020-03-13 15:00:00 16.8 24 Nordeste 40 Nordeste 0 949.9 -1.8 44
2020-03-13 14:00:00 17.1 23 Nordeste 35 Nordeste 0 950.5 -1.5 43
2020-03-13 13:00:00 17 16 Nordeste 24 Nordeste 0 951.1 -1.4 45
2020-03-13 12:00:00 16.1 8 Nordeste 19 Norte 0 951.7 -0.5 48
2020-03-13 11:00:00 14.3 7 Norte 17 Nordeste 0 952 0.5 54
2020-03-13 10:00:00 12.7 3 Nordeste 11 Nordeste 0 952.5 1.3 62
2020-03-13 09:00:00 10.5 6 Sudeste 9 Sudeste 0 952.2 1.1 76
2020-03-13 08:00:00 9.5 5 Sur 8 Sur 0 951.5 0.7 79
2020-03-13 07:00:00 9.6 4 Oeste 10 Sur 0 951.2 0.1 78
2020-03-13 06:00:00 10.3 6 Sur 10 Este 0 951.1 -0.3 75
2020-03-13 05:00:00 10.8 7 Este 12 Nordeste 0 950.8 -0.5 71
2020-03-13 04:00:00 11.3 4 Este 12 Este 0 951.1 -0.2 71
2020-03-13 03:00:00 11.7 10 Este 20 Nordeste 0 951.4 0 72
2020-03-13 02:00:00 11.8 5 Este 28 Nordeste 0 951.3 0.3 72
2020-03-13 01:00:00 12.1 7 Este 22 Nordeste 0 951.3 0.9 73
2020-03-13 00:00:00 12.7 7 Este 20 Nordeste 0 951.4 1.5 72
2020-03-12 23:00:00 14.1 8 Este 29 Nordeste 0 951 1.7 67
2020-03-12 22:00:00 15 17 Nordeste 33 Nordeste 0 950.4 1.7 64
2020-03-12 21:00:00 16.5 15 Nordeste 28 Nordeste 0 949.9 1.6 60
2020-03-12 20:00:00 17.7 13 Nordeste 32 Nordeste 0 949.3 1.5 55
2020-03-12 19:00:00 18.9 22 Nordeste 34 Nordeste 0 948.7 0.6 48
2020-03-12 18:00:00 20.2 23 Nordeste 40 Nordeste 0 948.3 -0.7 44
2020-03-12 17:00:00 22.5 23 Nordeste 34 Nordeste 0 947.8 -2.5 37
2020-03-12 16:00:00 26.9 13 Nordeste 22 Este 0 948.1 -3.5 26
2020-03-12 15:00:00 26.2 5 Nordeste 12 Nordeste 0 949 -3.5 25
2020-03-12 14:00:00 24.7 4 Nordeste 9 Norte 0 950.3 -2.9 26
2020-03-12 13:00:00 21.4 4 Nordeste 9 Nordeste 0 951.6 -2.1 34
2020-03-12 12:00:00 17.7 4 Norte 10 Nordeste 0 952.5 -1.2 44
2020-03-12 11:00:00 13.8 4 Oeste 7 Oeste 0 953.2 -0.2 57
2020-03-12 10:00:00 9.5 2 Oeste 5 Nordeste 0 953.7 0.4 73
2020-03-12 09:00:00 7.3 3 Nordeste 5 Sur 0 953.7 0.7 79
2020-03-12 08:00:00 6.2 4 Sudoeste 5 Sudoeste 0 953.4 0 79
2020-03-12 07:00:00 6.7 2 Sur 4 Sudoeste 0 953.3 -0.1 76
2020-03-12 06:00:00 7.5 3 Sudoeste 4 Sudoeste 0 953 -0.9 74
2020-03-12 05:00:00 8.2 0 Calma 4 Norte 0 953.4 -0.6 71
2020-03-12 04:00:00 9 3 Sudeste 5 Este 0 953.4 -0.8 69
2020-03-12 03:00:00 10 3 Sudoeste 5 Sudeste 0 953.9 -0.4 66
2020-03-12 02:00:00 11 2 Sudoeste 4 Oeste 0 954 -0.2 62
2020-03-12 01:00:00 12 3 Sudeste 6 Este 0 954.2 0.3 58
2020-03-12 00:00:00 13.1 3 Sudeste 6 Sur 0 954.3 0.8 54
2020-03-11 23:00:00 14.6 5 Nordeste 8 Nordeste 0 954.2 0.9 50
2020-03-11 22:00:00 16.6 3 Este 6 Sudeste 0 953.9 1.1 42
2020-03-11 21:00:00 18.7 4 Norte 9 Noroeste 0 953.5 1.1 37
2020-03-11 20:00:00 21.9 4 Sur 9 Sur 0 953.3 0.9 29
2020-03-11 19:00:00 24.4 3 Sudoeste 16 Oeste 0 952.8 -0.1 24
2020-03-11 18:00:00 26.5 11 Sudoeste 26 Oeste 0 952.4 -1.1 21
2020-03-11 17:00:00 27.6 17 Oeste 27 Sudoeste 0 952.4 -1.9 20
2020-03-11 16:00:00 27.1 14 Sudoeste 24 Sudoeste 0 952.9 -2.7 20
2020-03-11 15:00:00 26.3 8 Sudoeste 28 Oeste 0 953.5 -3.1 21
2020-03-11 14:00:00 24.5 17 Oeste 29 Sudoeste 0 954.3 -3 24
2020-03-11 13:00:00 21.9 7 Sudoeste 15 Oeste 0 955.6 -1.9 29
2020-03-11 12:00:00 17.2 4 Norte 9 Noroeste 0 956.6 -0.9 45
2020-03-11 11:00:00 13.6 4 Nordeste 9 Nordeste 0 957.3 0.2 57
2020-03-11 10:00:00 9.7 3 Sur 6 Sur 0 957.5 0.7 69
2020-03-11 09:00:00 5.8 3 Nordeste 7 Nordeste 0 957.5 0.9 84
2020-03-11 08:00:00 4.4 0 Calma 3 Sudoeste 0 957.1 0.7 85
2020-03-11 07:00:00 4.7 0 Calma 4 Sudoeste 0 956.8 0.5 83
2020-03-11 06:00:00 5.4 3 Sur 8 Nordeste 0 956.6 -0.1 81
2020-03-11 05:00:00 5.8 6 Nordeste 8 Nordeste 0 956.4 -0.5 80
2020-03-11 04:00:00 6.8 0 Calma 6 Nordeste 0 956.3 -0.6 77
2020-03-11 03:00:00 7.5 6 Nordeste 7 Nordeste 0 956.7 -0.3 76
2020-03-11 02:00:00 8.5 2 Sudoeste 6 Sur 0 956.9 0 72
2020-03-11 01:00:00 9.5 3 Este 5 Este 0 956.9 0.4 68
2020-03-11 00:00:00 10.6 3 Nordeste 8 Sudeste 0 957 0.9 64
2020-03-10 23:00:00 11.8 3 Sur 6 Sur 0 956.9 1.2 59
2020-03-10 22:00:00 13.2 7 Nordeste 11 Nordeste 0 956.5 1.3 55
2020-03-10 21:00:00 16.1 4 Sur 6 Sudeste 0 956.1 1.4 44
2020-03-10 20:00:00 18.3 3 Nordeste 10 Sudeste 0 955.7 1 38
2020-03-10 19:00:00 20.3 4 Nordeste 19 Oeste 0 955.2 0.2 32
2020-03-10 18:00:00 21.4 13 Oeste 26 Oeste 0 954.7 -0.9 31
2020-03-10 17:00:00 22.5 17 Oeste 33 Oeste 0 954.7 -1.3 29
2020-03-10 16:00:00 22.8 16 Sudoeste 27 Oeste 0 955 -2.1 28
2020-03-10 15:00:00 22 11 Sudoeste 23 Oeste 0 955.6 -2.5 28
2020-03-10 14:00:00 20.6 8 Oeste 22 Oeste 0 956 -2.4 30
2020-03-10 13:00:00 18.4 4 Sur 12 Sudoeste 0 957.1 -1.7 35
2020-03-10 12:00:00 15.5 3 Sudoeste 8 Oeste 0 958.1 -0.4 42
2020-03-10 11:00:00 12.1 4 Nordeste 6 Nordeste 0 958.4 0.3 53
2020-03-10 10:00:00 7.8 2 Oeste 5 Norte 0 958.8 0.9 63
2020-03-10 09:00:00 5.3 3 Norte 4 Norte 0 958.5 0.9 71
2020-03-10 08:00:00 3.9 3 Nordeste 5 Este 0 958.1 0.7 75
2020-03-10 07:00:00 3.4 3 Nordeste 5 Nordeste 0 957.9 0.8 77
2020-03-10 06:00:00 3.2 0 Calma 6 Este 0 957.6 0.1 78
2020-03-10 05:00:00 3 3 Sur 6 Sur 0 957.4 -0.1 78
2020-03-10 04:00:00 3.5 0 Calma 5 Este 0 957.1 -0.4 76
2020-03-10 03:00:00 4 4 Este 7 Este 0 957.5 0 74
2020-03-10 02:00:00 5 2 Sur 13 Sur 0 957.5 -0.4 71
2020-03-10 01:00:00 5.8 3 Este 8 Sur 0 957.5 -0.3 69
2020-03-10 00:00:00 6.7 4 Norte 10 Este 0 957.5 -0.1 65
2020-03-09 23:00:00 7.6 2 Este 9 Este 0 957.9 1.2 62
2020-03-09 22:00:00 9 4 Este 19 Oeste 0 957.8 1.9 57
2020-03-09 21:00:00 9.4 14 Nordeste 28 Nordeste 0 957.6 2.4 60
2020-03-09 20:00:00 10.9 22 Norte 31 Nordeste 0 956.7 1.9 50
2020-03-09 19:00:00 11.9 15 Nordeste 28 Nordeste 0 955.9 1.2 46
2020-03-09 18:00:00 14.2 14 Norte 27 Norte 0 955.2 0 37
2020-03-09 17:00:00 15.6 13 Norte 39 Nordeste 0 954.8 -0.8 29
2020-03-09 16:00:00 17 19 Norte 38 Norte 0 954.7 -1.8 27
2020-03-09 15:00:00 15.8 19 Noroeste 37 Noroeste 0 955.2 -1.9 30
2020-03-09 14:00:00 16.3 14 Norte 39 Norte 0 955.6 -1.5 28
2020-03-09 13:00:00 15.2 10 Noroeste 36 Noroeste 0 956.5 -0.7 32
2020-03-09 12:00:00 13.9 17 Noroeste 40 Oeste 0 957.1 0.3 33
2020-03-09 11:00:00 12.2 14 Oeste 32 Noroeste 0 957.1 0.3 38
2020-03-09 10:00:00 10.5 17 Oeste 30 Oeste 0 957.2 1.1 51
2020-03-09 09:00:00 7.4 5 Sudoeste 9 Sudoeste 0 956.8 1.3 74
2020-03-09 08:00:00 7.1 4 Sudoeste 9 Oeste 0 956.8 1.6 76
2020-03-09 07:00:00 7.5 3 Sur 5 Sudoeste 0 956.1 1.2 77
2020-03-09 06:00:00 7.6 3 Este 11 Nordeste 0 955.5 0.4 77
2020-03-09 05:00:00 7.7 5 Este 8 Nordeste 0 955.2 0.2 76
2020-03-09 04:00:00 7.9 4 Norte 10 Oeste 0 954.9 -0.4 74
2020-03-09 03:00:00 7.8 6 Este 12 Nordeste 0 955.1 0 71
2020-03-09 02:00:00 8.9 8 Sur 10 Sudeste 0 955 0.1 69
2020-03-09 01:00:00 9.1 3 Sudoeste 13 Sudoeste 0 955.3 0.4 64
2020-03-09 00:00:00 9.5 7 Sudoeste 15 Sudoeste 0 955.1 1 58
2020-03-08 23:00:00 10.6 8 Sudoeste 14 Sudoeste 0 954.9 1.1 55
2020-03-08 22:00:00 11.4 6 Sudoeste 15 Sudoeste 0 954.9 1.5 52
2020-03-08 21:00:00 12.9 10 Oeste 19 Oeste 0 954.1 0.9 48
2020-03-08 20:00:00 13.8 6 Sudoeste 26 Oeste 0 953.8 0.4 45
2020-03-08 19:00:00 15.1 11 Oeste 21 Oeste 0 953.4 0 42
2020-03-08 18:00:00 16 10 Oeste 31 Sudoeste 0 953.2 -0.3 36
2020-03-08 17:00:00 16.3 18 Oeste 30 Oeste 0 953.4 -0.8 36
2020-03-08 16:00:00 16.4 14 Oeste 27 Oeste 0 953.4 -2 36
2020-03-08 15:00:00 16.7 18 Sudoeste 34 Oeste 0 953.5 -2.6 36
2020-03-08 14:00:00 16.3 12 Sudoeste 31 Oeste 0 954.2 -2.7 39
2020-03-08 13:00:00 15.3 23 Sudoeste 33 Sudoeste 0 955.4 -1.9 41
2020-03-08 12:00:00 13.8 14 Sudoeste 27 Sudoeste 0 956.1 -1.2 45
2020-03-08 11:00:00 9.6 5 Sudoeste 11 Sudoeste 0 956.9 0.2 60
2020-03-08 10:00:00 4.4 3 Sudoeste 8 Sur 0 957.3 1.1 83
2020-03-08 09:00:00 0.2 3 Sudoeste 5 Oeste 0 957.3 1.2 89
2020-03-08 08:00:00 -0.5 2 Sur 6 Sudeste 0 956.7 0.2 89
2020-03-08 07:00:00 -0.4 3 Sudeste 6 Este 0 956.2 0 88
2020-03-08 06:00:00 0.7 3 Sur 6 Sur 0 956.1 0 87
2020-03-08 05:00:00 1.1 0 Calma 5 Sudeste 0 956.5 -0.2 85
2020-03-08 04:00:00 1.9 2 Sur 6 Sur 0 956.2 -1 84
2020-03-08 03:00:00 2.7 0 Calma 6 Este 0 956.1 -1.1 83
2020-03-08 02:00:00 3.9 3 Norte 9 Sur 0 956.7 -0.5 80
2020-03-08 01:00:00 5.3 5 Sur 14 Sur 0 957.2 0.1 75
2020-03-08 00:00:00 5.6 9 Sur 13 Sur 0 957.2 0.5 76